sensor_id;sensor_type;location;lat;lon;timestamp;pressure;altitude;pressure_sealevel;temperature;humidity
19023;BME280;35226;48.606;8.858;2023-05-07T00:01:08;96187.06;;;13.70;100.00
19023;BME280;35226;48.606;8.858;2023-05-07T00:03:33;96185.56;;;13.51;100.00
19023;BME280;35226;48.606;8.858;2023-05-07T00:05:59;96186.03;;;13.50;100.00
19023;BME280;35226;48.606;8.858;2023-05-07T00:08:25;96186.19;;;13.46;100.00
19023;BME280;35226;48.606;8.858;2023-05-07T00:10:50;96177.56;;;13.44;100.00
19023;BME280;35226;48.606;8.858;2023-05-07T00:13:16;96176.78;;;13.44;100.00
19023;BME280;35226;48.606;8.858;2023-05-07T00:15:41;96182.50;;;13.40;100.00
19023;BME280;35226;48.606;8.858;2023-05-07T00:18:07;96173.22;;;13.43;100.00
19023;BME280;35226;48.606;8.858;2023-05-07T00:20:32;96181.72;;;13.40;100.00
19023;BME280;35226;48.606;8.858;2023-05-07T00:22:58;96178.19;;;13.39;100.00
19023;BME280;35226;48.606;8.858;2023-05-07T00:25:23;96177.88;;;13.37;100.00
19023;BME280;35226;48.606;8.858;2023-05-07T00:27:49;96182.19;;;13.38;100.00
19023;BME280;35226;48.606;8.858;2023-05-07T00:30:15;96187.75;;;13.38;100.00
19023;BME280;35226;48.606;8.858;2023-05-07T00:32:40;96174.47;;;13.33;100.00
19023;BME280;35226;48.606;8.858;2023-05-07T00:35:06;96180.22;;;13.29;100.00
19023;BME280;35226;48.606;8.858;2023-05-07T00:37:32;96182.22;;;13.29;100.00
19023;BME280;35226;48.606;8.858;2023-05-07T00:39:58;96171.72;;;13.24;100.00
19023;BME280;35226;48.606;8.858;2023-05-07T00:42:24;96165.88;;;13.22;100.00
19023;BME280;35226;48.606;8.858;2023-05-07T00:44:52;96161.09;;;13.41;100.00
19023;BME280;35226;48.606;8.858;2023-05-07T00:47:18;96158.13;;;13.44;100.00
19023;BME280;35226;48.606;8.858;2023-05-07T00:49:44;96154.63;;;13.25;100.00
19023;BME280;35226;48.606;8.858;2023-05-07T00:52:13;96163.06;;;13.13;100.00
19023;BME280;35226;48.606;8.858;2023-05-07T00:54:40;96164.31;;;13.12;100.00
19023;BME280;35226;48.606;8.858;2023-05-07T00:57:06;96159.38;;;13.07;100.00
19023;BME280;35226;48.606;8.858;2023-05-07T00:59:32;96163.06;;;13.04;100.00
19023;BME280;35226;48.606;8.858;2023-05-07T01:01:59;96155.97;;;13.03;100.00
19023;BME280;35226;48.606;8.858;2023-05-07T01:04:25;96164.00;;;13.01;100.00
19023;BME280;35226;48.606;8.858;2023-05-07T01:06:52;96166.78;;;13.01;100.00
19023;BME280;35226;48.606;8.858;2023-05-07T01:09:23;96164.00;;;13.01;100.00
19023;BME280;35226;48.606;8.858;2023-05-07T01:11:50;96167.84;;;12.94;100.00
19023;BME280;35226;48.606;8.858;2023-05-07T01:14:17;96155.53;;;12.95;100.00
19023;BME280;35226;48.606;8.858;2023-05-07T01:16:43;96152.94;;;12.91;100.00
19023;BME280;35226;48.606;8.858;2023-05-07T01:19:09;96154.16;;;12.90;100.00
19023;BME280;35226;48.606;8.858;2023-05-07T01:21:37;96152.31;;;12.87;100.00
19023;BME280;35226;48.606;8.858;2023-05-07T01:24:05;96157.06;;;12.87;100.00
19023;BME280;35226;48.606;8.858;2023-05-07T01:26:32;96151.22;;;12.85;100.00
19023;BME280;35226;48.606;8.858;2023-05-07T01:28:57;96151.97;;;12.85;100.00
19023;BME280;35226;48.606;8.858;2023-05-07T01:31:24;96150.44;;;12.84;100.00
19023;BME280;35226;48.606;8.858;2023-05-07T01:33:50;96155.38;;;12.89;100.00
19023;BME280;35226;48.606;8.858;2023-05-07T01:36:18;96150.16;;;12.82;100.00
19023;BME280;35226;48.606;8.858;2023-05-07T01:38:46;96160.75;;;12.84;100.00
19023;BME280;35226;48.606;8.858;2023-05-07T01:41:12;96161.69;;;12.81;100.00
19023;BME280;35226;48.606;8.858;2023-05-07T01:43:40;96164.47;;;12.81;100.00
19023;BME280;35226;48.606;8.858;2023-05-07T01:46:08;96157.53;;;12.76;100.00
19023;BME280;35226;48.606;8.858;2023-05-07T01:48:35;96162.75;;;12.74;100.00
19023;BME280;35226;48.606;8.858;2023-05-07T01:51:01;96152.28;;;12.69;100.00
19023;BME280;35226;48.606;8.858;2023-05-07T01:53:27;96155.53;;;12.68;100.00
19023;BME280;35226;48.606;8.858;2023-05-07T01:55:53;96148.13;;;12.65;100.00
19023;BME280;35226;48.606;8.858;2023-05-07T01:58:21;96152.44;;;12.66;100.00
19023;BME280;35226;48.606;8.858;2023-05-07T02:00:47;96154.44;;;12.65;100.00
19023;BME280;35226;48.606;8.858;2023-05-07T02:03:12;96157.06;;;12.59;100.00
19023;BME280;35226;48.606;8.858;2023-05-07T02:05:45;96155.66;;;12.55;100.00
19023;BME280;35226;48.606;8.858;2023-05-07T02:08:18;96159.66;;;12.54;100.00
19023;BME280;35226;48.606;8.858;2023-05-07T02:10:44;96160.28;;;12.49;100.00
19023;BME280;35226;48.606;8.858;2023-05-07T02:13:10;96152.88;;;12.46;100.00
19023;BME280;35226;48.606;8.858;2023-05-07T02:15:36;96161.19;;;12.46;100.00
19023;BME280;35226;48.606;8.858;2023-05-07T02:18:04;96165.66;;;12.43;100.00
19023;BME280;35226;48.606;8.858;2023-05-07T02:20:31;96159.03;;;12.41;100.00
19023;BME280;35226;48.606;8.858;2023-05-07T02:22:57;96154.72;;;12.40;100.00
19023;BME280;35226;48.606;8.858;2023-05-07T02:25:24;96154.72;;;12.40;100.00
19023;BME280;35226;48.606;8.858;2023-05-07T02:27:50;96161.16;;;12.37;100.00
19023;BME280;35226;48.606;8.858;2023-05-07T02:30:17;96157.78;;;12.33;100.00
19023;BME280;35226;48.606;8.858;2023-05-07T02:32:42;96165.47;;;12.29;100.00
19023;BME280;35226;48.606;8.858;2023-05-07T02:35:08;96161.78;;;12.32;100.00
19023;BME280;35226;48.606;8.858;2023-05-07T02:37:34;96160.38;;;12.27;100.00
19023;BME280;35226;48.606;8.858;2023-05-07T02:40:00;96161.59;;;12.26;100.00
19023;BME280;35226;48.606;8.858;2023-05-07T02:42:26;96168.84;;;12.23;100.00
19023;BME280;35226;48.606;8.858;2023-05-07T02:44:51;96168.06;;;12.23;100.00
19023;BME280;35226;48.606;8.858;2023-05-07T02:47:17;96160.03;;;12.16;100.00
19023;BME280;35226;48.606;8.858;2023-05-07T02:49:44;96154.34;;;12.10;100.00
19023;BME280;35226;48.606;8.858;2023-05-07T02:52:10;96148.47;;;12.08;100.00
19023;BME280;35226;48.606;8.858;2023-05-07T02:54:35;96144.81;;;12.11;100.00
19023;BME280;35226;48.606;8.858;2023-05-07T02:57:01;96147.38;;;12.06;100.00
19023;BME280;35226;48.606;8.858;2023-05-07T02:59:27;96141.22;;;12.02;100.00
19023;BME280;35226;48.606;8.858;2023-05-07T03:01:53;96142.59;;;11.97;100.00
19023;BME280;35226;48.606;8.858;2023-05-07T03:04:20;96147.81;;;11.95;100.00
19023;BME280;35226;48.606;8.858;2023-05-07T03:06:45;96153.06;;;11.93;100.00
19023;BME280;35226;48.606;8.858;2023-05-07T03:09:11;96146.88;;;11.89;100.00
19023;BME280;35226;48.606;8.858;2023-05-07T03:11:37;96146.72;;;11.83;100.00
19023;BME280;35226;48.606;8.858;2023-05-07T03:14:03;96153.47;;;11.82;100.00
19023;BME280;35226;48.606;8.858;2023-05-07T03:16:29;96157.59;;;11.78;100.00
19023;BME280;35226;48.606;8.858;2023-05-07T03:18:55;96153.72;;;11.75;100.00
19023;BME280;35226;48.606;8.858;2023-05-07T03:21:20;96151.28;;;11.77;100.00
19023;BME280;35226;48.606;8.858;2023-05-07T03:23:46;96150.50;;;11.77;100.00
19023;BME280;35226;48.606;8.858;2023-05-07T03:26:12;96145.56;;;11.72;100.00
19023;BME280;35226;48.606;8.858;2023-05-07T03:28:38;96143.56;;;11.72;100.00
19023;BME280;35226;48.606;8.858;2023-05-07T03:31:07;96148.63;;;11.74;100.00
19023;BME280;35226;48.606;8.858;2023-05-07T03:33:34;96142.66;;;11.75;100.00
19023;BME280;35226;48.606;8.858;2023-05-07T03:36:00;96137.13;;;11.75;100.00
19023;BME280;35226;48.606;8.858;2023-05-07T03:38:27;96151.84;;;11.72;100.00
19023;BME280;35226;48.606;8.858;2023-05-07T03:40:53;96146.00;;;11.70;100.00
19023;BME280;35226;48.606;8.858;2023-05-07T03:43:19;96139.53;;;11.64;100.00
19023;BME280;35226;48.606;8.858;2023-05-07T03:45:50;96142.88;;;11.59;100.00
19023;BME280;35226;48.606;8.858;2023-05-07T03:48:20;96132.41;;;11.54;100.00
19023;BME280;35226;48.606;8.858;2023-05-07T03:50:47;96145.31;;;11.57;100.00
19023;BME280;35226;48.606;8.858;2023-05-07T03:53:14;96136.84;;;11.52;100.00
19023;BME280;35226;48.606;8.858;2023-05-07T03:55:39;96138.66;;;11.45;100.00
19023;BME280;35226;48.606;8.858;2023-05-07T03:58:05;96144.31;;;11.42;100.00
19023;BME280;35226;48.606;8.858;2023-05-07T04:00:32;96142.66;;;11.44;100.00
19023;BME280;35226;48.606;8.858;2023-05-07T04:03:05;96144.66;;;11.44;100.00
19023;BME280;35226;48.606;8.858;2023-05-07T04:05:31;96141.34;;;11.36;100.00
19023;BME280;35226;48.606;8.858;2023-05-07T04:08:00;96148.59;;;11.34;100.00
19023;BME280;35226;48.606;8.858;2023-05-07T04:10:34;96150.56;;;11.33;100.00
19023;BME280;35226;48.606;8.858;2023-05-07T04:13:04;96151.53;;;11.39;100.00
19023;BME280;35226;48.606;8.858;2023-05-07T04:15:30;96151.06;;;11.41;100.00
19023;BME280;35226;48.606;8.858;2023-05-07T04:17:55;96151.72;;;11.45;100.00
19023;BME280;35226;48.606;8.858;2023-05-07T04:20:23;96157.38;;;11.41;100.00
19023;BME280;35226;48.606;8.858;2023-05-07T04:22:54;96153.19;;;11.37;100.00
19023;BME280;35226;48.606;8.858;2023-05-07T04:25:21;96151.78;;;11.32;100.00
19023;BME280;35226;48.606;8.858;2023-05-07T04:27:47;96153.00;;;11.31;100.00
19023;BME280;35226;48.606;8.858;2023-05-07T04:30:14;96153.13;;;11.28;100.00
19023;BME280;35226;48.606;8.858;2023-05-07T04:32:40;96162.81;;;11.23;100.00
19023;BME280;35226;48.606;8.858;2023-05-07T04:35:06;96164.34;;;11.24;100.00
19023;BME280;35226;48.606;8.858;2023-05-07T04:37:33;96160.94;;;11.20;100.00
19023;BME280;35226;48.606;8.858;2023-05-07T04:39:59;96168.34;;;11.23;100.00
19023;BME280;35226;48.606;8.858;2023-05-07T04:42:26;96160.03;;;11.23;100.00
19023;BME280;35226;48.606;8.858;2023-05-07T04:44:53;96160.81;;;11.24;100.00
19023;BME280;35226;48.606;8.858;2023-05-07T04:47:20;96163.91;;;11.26;100.00
19023;BME280;35226;48.606;8.858;2023-05-07T04:49:46;96182.34;;;11.29;100.00
19023;BME280;35226;48.606;8.858;2023-05-07T04:52:12;96180.03;;;11.27;100.00
19023;BME280;35226;48.606;8.858;2023-05-07T04:54:41;96177.59;;;11.29;100.00
19023;BME280;35226;48.606;8.858;2023-05-07T04:57:07;96172.69;;;11.33;100.00
19023;BME280;35226;48.606;8.858;2023-05-07T04:59:33;96174.44;;;11.40;100.00
19023;BME280;35226;48.606;8.858;2023-05-07T05:01:59;96177.06;;;11.43;100.00
19023;BME280;35226;48.606;8.858;2023-05-07T05:04:25;96183.75;;;11.55;100.00
19023;BME280;35226;48.606;8.858;2023-05-07T05:06:51;96190.41;;;11.67;100.00
19023;BME280;35226;48.606;8.858;2023-05-07T05:09:17;96185.97;;;11.69;100.00
19023;BME280;35226;48.606;8.858;2023-05-07T05:11:43;96190.47;;;11.76;100.00
19023;BME280;35226;48.606;8.858;2023-05-07T05:14:09;96200.25;;;11.90;100.00
19023;BME280;35226;48.606;8.858;2023-05-07T05:16:35;96201.81;;;12.00;100.00
19023;BME280;35226;48.606;8.858;2023-05-07T05:19:01;96201.22;;;12.05;100.00
19023;BME280;35226;48.606;8.858;2023-05-07T05:21:28;96200.78;;;12.06;100.00
19023;BME280;35226;48.606;8.858;2023-05-07T05:23:59;96194.19;;;12.13;100.00
19023;BME280;35226;48.606;8.858;2023-05-07T05:26:25;96199.13;;;12.18;100.00
19023;BME280;35226;48.606;8.858;2023-05-07T05:28:51;96199.59;;;12.26;100.00
19023;BME280;35226;48.606;8.858;2023-05-07T05:31:22;96204.41;;;12.34;100.00
19023;BME280;35226;48.606;8.858;2023-05-07T05:33:49;96210.16;;;12.49;100.00
19023;BME280;35226;48.606;8.858;2023-05-07T05:36:14;96208.63;;;12.57;100.00
19023;BME280;35226;48.606;8.858;2023-05-07T05:38:42;96210.50;;;12.60;100.00
19023;BME280;35226;48.606;8.858;2023-05-07T05:41:09;96214.63;;;12.65;100.00
19023;BME280;35226;48.606;8.858;2023-05-07T05:43:35;96213.75;;;12.77;100.00
19023;BME280;35226;48.606;8.858;2023-05-07T05:46:00;96211.44;;;12.84;100.00
19023;BME280;35226;48.606;8.858;2023-05-07T05:48:26;96217.31;;;12.95;100.00
19023;BME280;35226;48.606;8.858;2023-05-07T05:50:52;96210.38;;;13.00;100.00
19023;BME280;35226;48.606;8.858;2023-05-07T05:53:18;96214.09;;;13.15;100.00
19023;BME280;35226;48.606;8.858;2023-05-07T05:55:47;96222.13;;;13.31;100.00
19023;BME280;35226;48.606;8.858;2023-05-07T05:58:13;96220.72;;;13.45;100.00
19023;BME280;35226;48.606;8.858;2023-05-07T06:00:46;96219.03;;;13.48;100.00
19023;BME280;35226;48.606;8.858;2023-05-07T06:03:14;96219.78;;;13.57;100.00
19023;BME280;35226;48.606;8.858;2023-05-07T06:05:40;96216.22;;;13.66;100.00
19023;BME280;35226;48.606;8.858;2023-05-07T06:08:06;96220.22;;;13.65;100.00
19023;BME280;35226;48.606;8.858;2023-05-07T06:10:37;96217.88;;;13.82;100.00
19023;BME280;35226;48.606;8.858;2023-05-07T06:13:04;96225.44;;;13.90;100.00
19023;BME280;35226;48.606;8.858;2023-05-07T06:15:32;96231.88;;;13.96;100.00
19023;BME280;35226;48.606;8.858;2023-05-07T06:18:03;96215.53;;;13.98;100.00
19023;BME280;35226;48.606;8.858;2023-05-07T06:20:29;96212.41;;;14.05;100.00
19023;BME280;35226;48.606;8.858;2023-05-07T06:22:56;96203.72;;;14.13;100.00
19023;BME280;35226;48.606;8.858;2023-05-07T06:25:22;96210.50;;;14.21;100.00
19023;BME280;35226;48.606;8.858;2023-05-07T06:27:48;96205.75;;;14.12;100.00
19023;BME280;35226;48.606;8.858;2023-05-07T06:30:13;96216.91;;;14.36;100.00
19023;BME280;35226;48.606;8.858;2023-05-07T06:32:40;96212.13;;;14.36;100.00
19023;BME280;35226;48.606;8.858;2023-05-07T06:35:07;96212.22;;;14.51;100.00
19023;BME280;35226;48.606;8.858;2023-05-07T06:37:35;96211.75;;;14.53;100.00
19023;BME280;35226;48.606;8.858;2023-05-07T06:40:06;96223.13;;;14.64;100.00
19023;BME280;35226;48.606;8.858;2023-05-07T06:42:35;96213.25;;;14.63;100.00
19023;BME280;35226;48.606;8.858;2023-05-07T06:45:19;96208.00;;;14.65;100.00
19023;BME280;35226;48.606;8.858;2023-05-07T06:47:45;96215.22;;;14.71;100.00
19023;BME280;35226;48.606;8.858;2023-05-07T06:50:11;96218.81;;;14.63;100.00
19023;BME280;35226;48.606;8.858;2023-05-07T06:52:37;96217.47;;;14.82;100.00
19023;BME280;35226;48.606;8.858;2023-05-07T06:55:05;96217.16;;;14.80;100.00
19023;BME280;35226;48.606;8.858;2023-05-07T06:57:31;96210.44;;;14.96;100.00
19023;BME280;35226;48.606;8.858;2023-05-07T06:59:57;96213.50;;;14.98;100.00
19023;BME280;35226;48.606;8.858;2023-05-07T07:02:25;96222.56;;;15.07;100.00
19023;BME280;35226;48.606;8.858;2023-05-07T07:04:51;96217.63;;;15.02;100.00
19023;BME280;35226;48.606;8.858;2023-05-07T07:07:18;96218.03;;;15.10;100.00
19023;BME280;35226;48.606;8.858;2023-05-07T07:09:46;96226.38;;;15.48;100.00
19023;BME280;35226;48.606;8.858;2023-05-07T07:12:13;96221.00;;;15.45;100.00
19023;BME280;35226;48.606;8.858;2023-05-07T07:14:40;96223.41;;;15.52;100.00
19023;BME280;35226;48.606;8.858;2023-05-07T07:17:06;96222.19;;;15.68;100.00
19023;BME280;35226;48.606;8.858;2023-05-07T07:19:32;96217.91;;;15.81;100.00
19023;BME280;35226;48.606;8.858;2023-05-07T07:21:59;96215.69;;;15.85;100.00
19023;BME280;35226;48.606;8.858;2023-05-07T07:24:24;96216.47;;;15.86;100.00
19023;BME280;35226;48.606;8.858;2023-05-07T07:26:54;96216.25;;;15.89;100.00
19023;BME280;35226;48.606;8.858;2023-05-07T07:29:21;96220.00;;;15.86;100.00
19023;BME280;35226;48.606;8.858;2023-05-07T07:31:48;96219.72;;;15.84;100.00
19023;BME280;35226;48.606;8.858;2023-05-07T07:34:16;96212.53;;;15.93;100.00
19023;BME280;35226;48.606;8.858;2023-05-07T07:36:42;96212.34;;;15.96;100.00
19023;BME280;35226;48.606;8.858;2023-05-07T07:39:08;96217.69;;;16.00;100.00
19023;BME280;35226;48.606;8.858;2023-05-07T07:41:33;96215.78;;;16.06;100.00
19023;BME280;35226;48.606;8.858;2023-05-07T07:44:00;96214.50;;;16.07;100.00
19023;BME280;35226;48.606;8.858;2023-05-07T07:46:25;96212.13;;;16.14;100.00
19023;BME280;35226;48.606;8.858;2023-05-07T07:48:53;96218.63;;;16.26;100.00
19023;BME280;35226;48.606;8.858;2023-05-07T07:51:19;96214.41;;;16.31;100.00
19023;BME280;35226;48.606;8.858;2023-05-07T07:53:45;96220.91;;;16.42;100.00
19023;BME280;35226;48.606;8.858;2023-05-07T07:56:10;96224.56;;;16.48;100.00
19023;BME280;35226;48.606;8.858;2023-05-07T07:58:36;96220.88;;;16.57;100.00
19023;BME280;35226;48.606;8.858;2023-05-07T08:01:03;96221.00;;;16.62;100.00
19023;BME280;35226;48.606;8.858;2023-05-07T08:03:29;96225.75;;;16.77;100.00
19023;BME280;35226;48.606;8.858;2023-05-07T08:05:57;96222.97;;;16.97;100.00
19023;BME280;35226;48.606;8.858;2023-05-07T08:08:24;96222.22;;;16.96;100.00
19023;BME280;35226;48.606;8.858;2023-05-07T08:10:51;96218.75;;;17.22;100.00
19023;BME280;35226;48.606;8.858;2023-05-07T08:13:24;96221.72;;;17.18;100.00
19023;BME280;35226;48.606;8.858;2023-05-07T08:15:50;96224.47;;;17.33;100.00
19023;BME280;35226;48.606;8.858;2023-05-07T08:18:15;96223.16;;;17.34;100.00
19023;BME280;35226;48.606;8.858;2023-05-07T08:20:42;96223.31;;;17.45;100.00
19023;BME280;35226;48.606;8.858;2023-05-07T08:23:12;96230.75;;;17.54;100.00
19023;BME280;35226;48.606;8.858;2023-05-07T08:25:40;96225.25;;;17.59;100.00
19023;BME280;35226;48.606;8.858;2023-05-07T08:28:07;96225.56;;;17.87;100.00
19023;BME280;35226;48.606;8.858;2023-05-07T08:30:33;96231.03;;;17.76;100.00
19023;BME280;35226;48.606;8.858;2023-05-07T08:33:00;96222.72;;;17.82;100.00
19023;BME280;35226;48.606;8.858;2023-05-07T08:35:25;96224.78;;;17.87;100.00
19023;BME280;35226;48.606;8.858;2023-05-07T08:37:52;96226.59;;;17.90;100.00
19023;BME280;35226;48.606;8.858;2023-05-07T08:40:19;96223.38;;;18.28;100.00
19023;BME280;35226;48.606;8.858;2023-05-07T08:42:49;96216.47;;;18.24;100.00
19023;BME280;35226;48.606;8.858;2023-05-07T08:45:17;96212.72;;;18.32;100.00
19023;BME280;35226;48.606;8.858;2023-05-07T08:47:47;96225.16;;;18.31;100.00
19023;BME280;35226;48.606;8.858;2023-05-07T08:50:24;96226.78;;;18.43;100.00
19023;BME280;35226;48.606;8.858;2023-05-07T08:52:50;96224.81;;;18.49;100.00
19023;BME280;35226;48.606;8.858;2023-05-07T08:55:17;96217.28;;;18.61;100.00
19023;BME280;35226;48.606;8.858;2023-05-07T08:57:43;96221.13;;;18.64;100.00
19023;BME280;35226;48.606;8.858;2023-05-07T09:00:10;96220.59;;;18.60;100.00
19023;BME280;35226;48.606;8.858;2023-05-07T09:02:37;96225.50;;;18.70;100.00
19023;BME280;35226;48.606;8.858;2023-05-07T09:05:05;96222.19;;;18.72;100.00
19023;BME280;35226;48.606;8.858;2023-05-07T09:07:31;96231.91;;;18.82;100.00
19023;BME280;35226;48.606;8.858;2023-05-07T09:10:02;96222.31;;;18.94;100.00
19023;BME280;35226;48.606;8.858;2023-05-07T09:12:28;96215.47;;;19.01;100.00
19023;BME280;35226;48.606;8.858;2023-05-07T09:14:54;96215.53;;;19.12;100.00
19023;BME280;35226;48.606;8.858;2023-05-07T09:17:20;96212.28;;;19.30;100.00
19023;BME280;35226;48.606;8.858;2023-05-07T09:19:46;96204.69;;;19.42;100.00
19023;BME280;35226;48.606;8.858;2023-05-07T09:22:13;96206.22;;;19.43;100.00
19023;BME280;35226;48.606;8.858;2023-05-07T09:24:50;96206.03;;;19.52;100.00
19023;BME280;35226;48.606;8.858;2023-05-07T09:27:18;96200.44;;;19.57;100.00
19023;BME280;35226;48.606;8.858;2023-05-07T09:29:44;96202.25;;;19.72;100.00
19023;BME280;35226;48.606;8.858;2023-05-07T09:32:11;96202.53;;;19.68;100.00
19023;BME280;35226;48.606;8.858;2023-05-07T09:34:37;96201.53;;;20.05;100.00
19023;BME280;35226;48.606;8.858;2023-05-07T09:37:06;96202.28;;;20.00;100.00
19023;BME280;35226;48.606;8.858;2023-05-07T09:42:07;96213.78;;;20.13;100.00
19023;BME280;35226;48.606;8.858;2023-05-07T09:44:35;96204.63;;;20.35;100.00
19023;BME280;35226;48.606;8.858;2023-05-07T09:47:04;96204.63;;;20.40;100.00
19023;BME280;35226;48.606;8.858;2023-05-07T09:49:39;96206.91;;;20.58;100.00
19023;BME280;35226;48.606;8.858;2023-05-07T09:52:09;96205.34;;;20.68;100.00
19023;BME280;35226;48.606;8.858;2023-05-07T09:54:40;96203.03;;;20.78;100.00
19023;BME280;35226;48.606;8.858;2023-05-07T09:57:10;96205.75;;;21.06;100.00
19023;BME280;35226;48.606;8.858;2023-05-07T09:59:42;96196.81;;;21.13;100.00
19023;BME280;35226;48.606;8.858;2023-05-07T10:02:11;96197.28;;;21.34;100.00
19023;BME280;35226;48.606;8.858;2023-05-07T10:04:46;96194.53;;;21.69;100.00
19023;BME280;35226;48.606;8.858;2023-05-07T10:07:13;96185.72;;;21.84;100.00
19023;BME280;35226;48.606;8.858;2023-05-07T10:09:40;96182.91;;;21.90;100.00
19023;BME280;35226;48.606;8.858;2023-05-07T10:12:14;96182.19;;;21.84;100.00
19023;BME280;35226;48.606;8.858;2023-05-07T10:14:40;96177.91;;;22.12;100.00
19023;BME280;35226;48.606;8.858;2023-05-07T10:17:05;96178.03;;;22.26;100.00
19023;BME280;35226;48.606;8.858;2023-05-07T10:19:32;96177.66;;;22.40;100.00
19023;BME280;35226;48.606;8.858;2023-05-07T10:22:04;96171.63;;;22.55;100.00
19023;BME280;35226;48.606;8.858;2023-05-07T10:24:35;96173.06;;;22.67;100.00
19023;BME280;35226;48.606;8.858;2023-05-07T10:27:07;96170.81;;;22.90;100.00
19023;BME280;35226;48.606;8.858;2023-05-07T10:29:41;96169.34;;;23.02;100.00
19023;BME280;35226;48.606;8.858;2023-05-07T10:32:26;96166.63;;;23.40;98.58
19023;BME280;35226;48.606;8.858;2023-05-07T10:34:57;96157.53;;;23.47;93.41
19023;BME280;35226;48.606;8.858;2023-05-07T10:37:25;96167.72;;;23.55;86.96
19023;BME280;35226;48.606;8.858;2023-05-07T10:39:52;96152.94;;;23.25;84.64
19023;BME280;35226;48.606;8.858;2023-05-07T10:42:18;96160.78;;;23.32;90.92
19023;BME280;35226;48.606;8.858;2023-05-07T10:44:49;96160.84;;;23.70;93.66
19023;BME280;35226;48.606;8.858;2023-05-07T10:47:21;96159.06;;;23.85;92.96
19023;BME280;35226;48.606;8.858;2023-05-07T10:52:24;96156.47;;;24.51;78.91
19023;BME280;35226;48.606;8.858;2023-05-07T10:57:41;96153.84;;;24.27;70.73
19023;BME280;35226;48.606;8.858;2023-05-07T11:05:28;96146.84;;;24.86;63.75
19023;BME280;35226;48.606;8.858;2023-05-07T11:08:03;96146.09;;;24.73;61.14
19023;BME280;35226;48.606;8.858;2023-05-07T11:16:24;96150.25;;;24.40;56.33
19023;BME280;35226;48.606;8.858;2023-05-07T11:19:06;96160.94;;;24.60;56.63
19023;BME280;35226;48.606;8.858;2023-05-07T11:21:39;96158.53;;;24.38;57.89
19023;BME280;35226;48.606;8.858;2023-05-07T11:24:10;96170.25;;;24.28;59.87
19023;BME280;35226;48.606;8.858;2023-05-07T11:26:50;96162.44;;;24.16;61.29
19023;BME280;35226;48.606;8.858;2023-05-07T11:29:20;96152.41;;;24.02;57.97
19023;BME280;35226;48.606;8.858;2023-05-07T11:31:51;96156.56;;;23.82;59.25
19023;BME280;35226;48.606;8.858;2023-05-07T11:34:22;96149.50;;;23.56;58.61
19023;BME280;35226;48.606;8.858;2023-05-07T11:36:48;96149.31;;;23.49;58.07
19023;BME280;35226;48.606;8.858;2023-05-07T11:39:26;96152.53;;;23.40;57.21
19023;BME280;35226;48.606;8.858;2023-05-07T11:41:51;96157.19;;;23.13;58.58
19023;BME280;35226;48.606;8.858;2023-05-07T11:44:17;96155.50;;;23.04;58.73
19023;BME280;35226;48.606;8.858;2023-05-07T11:46:43;96161.75;;;22.97;61.51
19023;BME280;35226;48.606;8.858;2023-05-07T11:49:12;96158.38;;;22.74;62.00
19023;BME280;35226;48.606;8.858;2023-05-07T11:51:38;96170.34;;;22.56;65.29
19023;BME280;35226;48.606;8.858;2023-05-07T11:54:04;96169.28;;;21.94;86.92
19023;BME280;35226;48.606;8.858;2023-05-07T11:56:34;96175.09;;;21.71;94.41
19023;BME280;35226;48.606;8.858;2023-05-07T11:59:04;96178.03;;;21.49;99.41
19023;BME280;35226;48.606;8.858;2023-05-07T12:01:29;96173.22;;;21.38;100.00
19023;BME280;35226;48.606;8.858;2023-05-07T12:03:55;96182.97;;;21.32;100.00
19023;BME280;35226;48.606;8.858;2023-05-07T12:06:21;96184.06;;;21.12;100.00
19023;BME280;35226;48.606;8.858;2023-05-07T12:08:46;96188.50;;;20.74;100.00
19023;BME280;35226;48.606;8.858;2023-05-07T12:11:18;96184.97;;;20.51;100.00
19023;BME280;35226;48.606;8.858;2023-05-07T12:13:47;96184.97;;;20.40;100.00
19023;BME280;35226;48.606;8.858;2023-05-07T12:16:12;96179.13;;;20.44;100.00
19023;BME280;35226;48.606;8.858;2023-05-07T12:18:38;96182.41;;;20.20;100.00
19023;BME280;35226;48.606;8.858;2023-05-07T12:21:05;96186.50;;;20.13;100.00
19023;BME280;35226;48.606;8.858;2023-05-07T12:23:32;96196.44;;;20.03;100.00
19023;BME280;35226;48.606;8.858;2023-05-07T12:25:59;96190.31;;;19.88;100.00
19023;BME280;35226;48.606;8.858;2023-05-07T12:28:25;96193.59;;;19.75;100.00
19023;BME280;35226;48.606;8.858;2023-05-07T12:30:50;96196.66;;;19.72;100.00
19023;BME280;35226;48.606;8.858;2023-05-07T12:33:18;96214.78;;;19.87;100.00
19023;BME280;35226;48.606;8.858;2023-05-07T12:35:44;96216.25;;;19.72;100.00
19023;BME280;35226;48.606;8.858;2023-05-07T12:38:12;96223.13;;;19.65;100.00
19023;BME280;35226;48.606;8.858;2023-05-07T12:40:38;96233.59;;;19.70;100.00
19023;BME280;35226;48.606;8.858;2023-05-07T12:43:04;96238.69;;;19.72;100.00
19023;BME280;35226;48.606;8.858;2023-05-07T12:45:30;96250.41;;;19.70;100.00
19023;BME280;35226;48.606;8.858;2023-05-07T12:47:56;96269.03;;;19.73;100.00
19023;BME280;35226;48.606;8.858;2023-05-07T12:50:21;96290.59;;;19.50;100.00
19023;BME280;35226;48.606;8.858;2023-05-07T12:52:50;96307.25;;;19.22;100.00
19023;BME280;35226;48.606;8.858;2023-05-07T12:55:16;96309.66;;;18.98;100.00
19023;BME280;35226;48.606;8.858;2023-05-07T12:57:49;96327.63;;;19.23;100.00
19023;BME280;35226;48.606;8.858;2023-05-07T13:00:17;96332.28;;;19.00;100.00
19023;BME280;35226;48.606;8.858;2023-05-07T13:02:43;96329.94;;;18.30;100.00
19023;BME280;35226;48.606;8.858;2023-05-07T13:05:12;96338.69;;;17.92;100.00
19023;BME280;35226;48.606;8.858;2023-05-07T13:07:38;96336.13;;;17.53;100.00
19023;BME280;35226;48.606;8.858;2023-05-07T13:10:05;96337.91;;;17.51;100.00